sensor_id;sensor_type;location;lat;lon;timestamp;pressure;altitude;pressure_sealevel;temperature
63113;BMP280;49206;48.020;21.378;2022-08-11T00:03:15;101093.72;;;19.28
63113;BMP280;49206;48.020;21.378;2022-08-11T00:13:19;101084.09;;;19.16
63113;BMP280;49206;48.020;21.378;2022-08-11T00:23:23;101085.50;;;18.96
63113;BMP280;49206;48.020;21.378;2022-08-11T01:46:03;101063.97;;;17.16
63113;BMP280;49206;48.020;21.378;2022-08-11T02:06:47;101061.41;;;16.97
63113;BMP280;49206;48.020;21.378;2022-08-11T02:17:20;101048.81;;;16.94
63113;BMP280;49206;48.020;21.378;2022-08-11T02:27:35;101042.50;;;16.80
63113;BMP280;49206;48.020;21.378;2022-08-11T02:48:35;101051.56;;;16.49
63113;BMP280;49206;48.020;21.378;2022-08-11T03:10:01;101044.13;;;16.62
63113;BMP280;49206;48.020;21.378;2022-08-11T03:31:07;101046.84;;;16.91
63113;BMP280;49206;48.020;21.378;2022-08-11T03:52:19;101049.50;;;17.50
63113;BMP280;49206;48.020;21.378;2022-08-11T04:23:23;101064.13;;;17.96
63113;BMP280;49206;48.020;21.378;2022-08-11T04:44:38;101069.19;;;18.51
63113;BMP280;49206;48.020;21.378;2022-08-11T05:16:10;101063.56;;;19.55
63113;BMP280;49206;48.020;21.378;2022-08-11T05:26:45;101057.88;;;20.09
63113;BMP280;49206;48.020;21.378;2022-08-11T05:47:35;101054.88;;;21.24
63113;BMP280;49206;48.020;21.378;2022-08-11T05:58:01;101055.66;;;21.75
63113;BMP280;49206;48.020;21.378;2022-08-11T06:08:05;101054.16;;;22.18
63113;BMP280;49206;48.020;21.378;2022-08-11T06:18:12;101037.03;;;22.72
63113;BMP280;49206;48.020;21.378;2022-08-11T06:28:18;101035.81;;;23.06
63113;BMP280;49206;48.020;21.378;2022-08-11T06:48:53;101030.13;;;23.50
63113;BMP280;49206;48.020;21.378;2022-08-11T06:58:56;101031.34;;;23.72
63113;BMP280;49206;48.020;21.378;2022-08-11T07:09:32;101033.47;;;24.03
63113;BMP280;49206;48.020;21.378;2022-08-11T07:19:59;101043.19;;;24.59
63113;BMP280;49206;48.020;21.378;2022-08-11T07:30:21;101044.75;;;25.43
63113;BMP280;49206;48.020;21.378;2022-08-11T07:40:26;101044.44;;;25.85
63113;BMP280;49206;48.020;21.378;2022-08-11T07:50:29;101042.47;;;25.86
63113;BMP280;49206;48.020;21.378;2022-08-11T08:00:56;101034.81;;;26.25
63113;BMP280;49206;48.020;21.378;2022-08-11T08:11:24;101027.75;;;26.81
63113;BMP280;49206;48.020;21.378;2022-08-11T08:21:46;101018.53;;;27.37
63113;BMP280;49206;48.020;21.378;2022-08-11T08:31:52;101011.94;;;28.02
63113;BMP280;49206;48.020;21.378;2022-08-11T08:41:57;101002.59;;;28.03
63113;BMP280;49206;48.020;21.378;2022-08-11T08:52:03;100986.91;;;28.76
63113;BMP280;49206;48.020;21.378;2022-08-11T09:02:27;100997.38;;;29.14
63113;BMP280;49206;48.020;21.378;2022-08-11T09:12:38;100980.84;;;28.72
63113;BMP280;49206;48.020;21.378;2022-08-11T09:22:43;100982.88;;;29.61
63113;BMP280;49206;48.020;21.378;2022-08-11T09:33:26;100970.88;;;29.77
63113;BMP280;49206;48.020;21.378;2022-08-11T09:43:29;100978.91;;;30.77
63113;BMP280;49206;48.020;21.378;2022-08-11T09:53:51;100967.09;;;30.15
63113;BMP280;49206;48.020;21.378;2022-08-11T10:14:14;100943.78;;;31.22
63113;BMP280;49206;48.020;21.378;2022-08-11T10:24:41;100937.63;;;30.98
63113;BMP280;49206;48.020;21.378;2022-08-11T10:35:04;100923.44;;;31.52
63113;BMP280;49206;48.020;21.378;2022-08-11T10:45:10;100909.34;;;33.12
63113;BMP280;49206;48.020;21.378;2022-08-11T10:55:32;100896.59;;;32.39
63113;BMP280;49206;48.020;21.378;2022-08-11T11:05:59;100909.69;;;32.29
63113;BMP280;49206;48.020;21.378;2022-08-11T11:16:24;100890.66;;;32.60
63113;BMP280;49206;48.020;21.378;2022-08-11T11:37:00;100874.09;;;33.00
63113;BMP280;49206;48.020;21.378;2022-08-11T11:47:04;100861.22;;;33.11
63113;BMP280;49206;48.020;21.378;2022-08-11T11:57:08;100861.31;;;33.58
63113;BMP280;49206;48.020;21.378;2022-08-11T12:07:39;100836.53;;;33.84
63113;BMP280;49206;48.020;21.378;2022-08-11T12:18:15;100828.03;;;33.35
63113;BMP280;49206;48.020;21.378;2022-08-11T12:28:18;100830.38;;;34.00
63113;BMP280;49206;48.020;21.378;2022-08-11T12:38:30;100823.16;;;32.32
63113;BMP280;49206;48.020;21.378;2022-08-11T12:48:44;100818.81;;;33.79
63113;BMP280;49206;48.020;21.378;2022-08-11T12:59:07;100805.78;;;33.58
63113;BMP280;49206;48.020;21.378;2022-08-11T13:09:29;100793.66;;;33.86
63113;BMP280;49206;48.020;21.378;2022-08-11T13:19:32;100785.06;;;34.31
63113;BMP280;49206;48.020;21.378;2022-08-11T13:29:36;100779.91;;;32.61
63113;BMP280;49206;48.020;21.378;2022-08-11T13:39:42;100759.63;;;32.79
63113;BMP280;49206;48.020;21.378;2022-08-11T13:49:48;100752.13;;;31.58
63113;BMP280;49206;48.020;21.378;2022-08-11T13:59:53;100743.31;;;31.49
63113;BMP280;49206;48.020;21.378;2022-08-11T14:10:00;100737.22;;;31.59
63113;BMP280;49206;48.020;21.378;2022-08-11T14:20:06;100734.41;;;32.13
63113;BMP280;49206;48.020;21.378;2022-08-11T14:30:29;100729.56;;;31.09
63113;BMP280;49206;48.020;21.378;2022-08-11T14:40:51;100742.38;;;28.43
63113;BMP280;49206;48.020;21.378;2022-08-11T14:51:12;100740.88;;;28.51
63113;BMP280;49206;48.020;21.378;2022-08-11T15:01:14;100723.91;;;29.32
63113;BMP280;49206;48.020;21.378;2022-08-11T15:11:35;100731.13;;;29.44
63113;BMP280;49206;48.020;21.378;2022-08-11T15:21:57;100737.50;;;28.82
63113;BMP280;49206;48.020;21.378;2022-08-11T15:32:18;100732.94;;;28.97
63113;BMP280;49206;48.020;21.378;2022-08-11T15:42:25;100731.06;;;28.53
63113;BMP280;49206;48.020;21.378;2022-08-11T15:53:02;100736.03;;;28.10
63113;BMP280;49206;48.020;21.378;2022-08-11T16:03:07;100734.09;;;27.71
63113;BMP280;49206;48.020;21.378;2022-08-11T16:13:50;100731.63;;;27.46
63113;BMP280;49206;48.020;21.378;2022-08-11T16:24:14;100740.91;;;26.85
63113;BMP280;49206;48.020;21.378;2022-08-11T16:34:38;100750.84;;;26.45
63113;BMP280;49206;48.020;21.378;2022-08-11T16:45:02;100750.69;;;25.52
63113;BMP280;49206;48.020;21.378;2022-08-11T16:55:25;100752.69;;;25.23
63113;BMP280;49206;48.020;21.378;2022-08-11T17:05:52;100760.34;;;25.13
63113;BMP280;49206;48.020;21.378;2022-08-11T17:16:21;100758.09;;;24.67
63113;BMP280;49206;48.020;21.378;2022-08-11T17:26:36;100752.22;;;24.40
63113;BMP280;49206;48.020;21.378;2022-08-11T17:37:00;100765.47;;;23.67
63113;BMP280;49206;48.020;21.378;2022-08-11T17:47:06;100770.22;;;23.60
63113;BMP280;49206;48.020;21.378;2022-08-11T17:57:27;100765.53;;;23.25
63113;BMP280;49206;48.020;21.378;2022-08-11T18:07:56;100764.91;;;23.18
63113;BMP280;49206;48.020;21.378;2022-08-11T18:18:17;100772.41;;;22.84
63113;BMP280;49206;48.020;21.378;2022-08-11T18:28:46;100785.06;;;22.15
63113;BMP280;49206;48.020;21.378;2022-08-11T18:39:11;100788.34;;;21.99
63113;BMP280;49206;48.020;21.378;2022-08-11T18:49:34;100804.22;;;21.57
63113;BMP280;49206;48.020;21.378;2022-08-11T19:00:04;100812.97;;;21.27
63113;BMP280;49206;48.020;21.378;2022-08-11T19:10:28;100814.75;;;20.97
63113;BMP280;49206;48.020;21.378;2022-08-11T19:20:52;100822.53;;;20.81
63113;BMP280;49206;48.020;21.378;2022-08-11T19:31:15;100817.91;;;20.85
63113;BMP280;49206;48.020;21.378;2022-08-11T19:41:37;100825.38;;;20.57
63113;BMP280;49206;48.020;21.378;2022-08-11T19:52:03;100828.72;;;20.78
63113;BMP280;49206;48.020;21.378;2022-08-11T20:02:25;100828.81;;;20.61
63113;BMP280;49206;48.020;21.378;2022-08-11T20:12:48;100834.13;;;20.71
63113;BMP280;49206;48.020;21.378;2022-08-11T20:23:15;100830.63;;;20.78
63113;BMP280;49206;48.020;21.378;2022-08-11T20:33:39;100823.84;;;20.59
63113;BMP280;49206;48.020;21.378;2022-08-11T20:44:02;100833.44;;;20.60
63113;BMP280;49206;48.020;21.378;2022-08-11T20:54:25;100839.22;;;20.52
63113;BMP280;49206;48.020;21.378;2022-08-11T21:04:50;100832.00;;;20.42
63113;BMP280;49206;48.020;21.378;2022-08-11T21:15:15;100840.13;;;20.24
63113;BMP280;49206;48.020;21.378;2022-08-11T21:26:01;100857.44;;;20.09
63113;BMP280;49206;48.020;21.378;2022-08-11T21:36:23;100856.34;;;19.93
63113;BMP280;49206;48.020;21.378;2022-08-11T21:46:45;100857.88;;;19.87
63113;BMP280;49206;48.020;21.378;2022-08-11T21:57:07;100862.88;;;19.75
63113;BMP280;49206;48.020;21.378;2022-08-11T22:07:28;100863.69;;;19.65
63113;BMP280;49206;48.020;21.378;2022-08-11T22:17:50;100867.13;;;19.51
63113;BMP280;49206;48.020;21.378;2022-08-11T22:28:11;100857.19;;;19.41
63113;BMP280;49206;48.020;21.378;2022-08-11T22:38:34;100855.66;;;19.33
63113;BMP280;49206;48.020;21.378;2022-08-11T22:48:57;100852.19;;;19.15
63113;BMP280;49206;48.020;21.378;2022-08-11T22:59:26;100843.00;;;19.06
63113;BMP280;49206;48.020;21.378;2022-08-11T23:09:47;100842.63;;;19.07
63113;BMP280;49206;48.020;21.378;2022-08-11T23:20:09;100844.91;;;18.98
63113;BMP280;49206;48.020;21.378;2022-08-11T23:30:44;100836.88;;;19.02
63113;BMP280;49206;48.020;21.378;2022-08-11T23:41:05;100835.31;;;18.84
63113;BMP280;49206;48.020;21.378;2022-08-11T23:51:26;100833.00;;;18.79
